FIN6AK LGSA-EFHK
Flight info
| Callsign | FIN6AK |
|---|---|
| Flight time | N/A |
| Altitude | 32000 |
| Route | SOKRI UY151 VELOP DCT ATV/N0452F340 UM749 SKP DCT ATFIR N133 USALI DCT LOMOS DCT TIXIP DCT KENIN/N0455F360 DCT TOXAR/N0456F350 DCT BOKSU DCT GUNTA DCT SOKVA DCT ANAMA DCT KEMET Q11 INTOR |
| Aircraft | A321/M-SDE1E2E3FGHIJ1M1RWXYZ/LB1 |
Departure
| Time | N/A |
|---|---|
| Airport | Chania International Airport (LGSA) |
Arrival
| Time | 2026-04-23 17:57 |
|---|---|
| Airport | Helsinki Vantaa Airport (EFHK) |
| Time | Latitude | Longitude | Altitude | Speed | Heading |
|---|---|---|---|---|---|
| 2026-04-23 15:55 | 48.97737 | 22.00942 | 33951 ft | 399 kts | 6° |
| 2026-04-23 15:56 | 49.00511 | 22.01319 | 33952 ft | 399 kts | 6° |
| 2026-04-23 15:56 | 49.06045 | 22.02063 | 33956 ft | 398 kts | 6° |
| 2026-04-23 15:57 | 49.11531 | 22.02800 | 33953 ft | 398 kts | 6° |
| 2026-04-23 15:57 | 49.17047 | 22.03558 | 33957 ft | 397 kts | 6° |
| 2026-04-23 15:58 | 49.22555 | 22.04312 | 33951 ft | 396 kts | 6° |
| 2026-04-23 15:58 | 49.28008 | 22.05055 | 33952 ft | 395 kts | 6° |
| 2026-04-23 15:59 | 49.33491 | 22.05805 | 33960 ft | 394 kts | 6° |
| 2026-04-23 15:59 | 49.38949 | 22.06555 | 33961 ft | 393 kts | 6° |
| 2026-04-23 16:00 | 49.44371 | 22.07294 | 33952 ft | 392 kts | 6° |
| 2026-04-23 16:00 | 49.49806 | 22.08034 | 33960 ft | 391 kts | 6° |
| 2026-04-23 16:01 | 49.55238 | 22.08782 | 33962 ft | 390 kts | 6° |
| 2026-04-23 16:01 | 49.60651 | 22.09532 | 33955 ft | 389 kts | 6° |
| 2026-04-23 16:02 | 49.66020 | 22.10278 | 33960 ft | 388 kts | 6° |
| 2026-04-23 16:02 | 49.71404 | 22.11027 | 33958 ft | 387 kts | 6° |
| 2026-04-23 16:03 | 49.76730 | 22.11770 | 33958 ft | 386 kts | 6° |
| 2026-04-23 16:03 | 49.82076 | 22.12512 | 33956 ft | 384 kts | 6° |
| 2026-04-23 16:04 | 49.87392 | 22.13254 | 33939 ft | 382 kts | 7° |
| 2026-04-23 16:04 | 49.91796 | 22.13872 | 33954 ft | 381 kts | 7° |
| 2026-04-23 16:05 | 49.97081 | 22.14614 | 33944 ft | 381 kts | 6° |
| 2026-04-23 16:05 | 50.02338 | 22.15343 | 33951 ft | 380 kts | 7° |
| 2026-04-23 16:06 | 50.07610 | 22.16083 | 33951 ft | 380 kts | 7° |
| 2026-04-23 16:06 | 50.12860 | 22.16824 | 33960 ft | 380 kts | 7° |
| 2026-04-23 16:07 | 50.18128 | 22.17574 | 33963 ft | 380 kts | 7° |
| 2026-04-23 16:07 | 50.23397 | 22.18332 | 33964 ft | 379 kts | 7° |
| 2026-04-23 16:08 | 50.28652 | 22.19080 | 33956 ft | 379 kts | 7° |
| 2026-04-23 16:08 | 50.33906 | 22.19824 | 33958 ft | 379 kts | 7° |
| 2026-04-23 16:09 | 50.39163 | 22.20575 | 33944 ft | 379 kts | 7° |
| 2026-04-23 16:09 | 50.44413 | 22.21325 | 33944 ft | 378 kts | 7° |
| 2026-04-23 16:10 | 50.49625 | 22.22068 | 33941 ft | 378 kts | 7° |
| 2026-04-23 16:10 | 50.54879 | 22.22822 | 33938 ft | 378 kts | 7° |
| 2026-04-23 16:11 | 50.60092 | 22.23584 | 33935 ft | 378 kts | 7° |
| 2026-04-23 16:11 | 50.65336 | 22.24342 | 33937 ft | 377 kts | 7° |
| 2026-04-23 16:12 | 50.70576 | 22.25092 | 33930 ft | 377 kts | 7° |
| 2026-04-23 16:12 | 50.75774 | 22.25836 | 33935 ft | 377 kts | 7° |
| 2026-04-23 16:13 | 50.81003 | 22.26605 | 33934 ft | 377 kts | 7° |
| 2026-04-23 16:13 | 50.88852 | 22.27758 | 33938 ft | 377 kts | 7° |
| 2026-04-23 16:14 | 50.94080 | 22.28509 | 33939 ft | 377 kts | 7° |
| 2026-04-23 16:14 | 50.99299 | 22.29268 | 33935 ft | 376 kts | 7° |
| 2026-04-23 16:15 | 51.04486 | 22.30032 | 33933 ft | 376 kts | 7° |
| 2026-04-23 16:15 | 51.09696 | 22.30809 | 33936 ft | 375 kts | 7° |
| 2026-04-23 16:16 | 51.14913 | 22.31579 | 33920 ft | 375 kts | 7° |
| 2026-04-23 16:16 | 51.20079 | 22.32339 | 33923 ft | 375 kts | 7° |
| 2026-04-23 16:17 | 51.25269 | 22.33107 | 33914 ft | 375 kts | 7° |
| 2026-04-23 16:17 | 51.30477 | 22.33879 | 33921 ft | 375 kts | 7° |
| 2026-04-23 16:18 | 51.35675 | 22.34661 | 33919 ft | 374 kts | 7° |
| 2026-04-23 16:18 | 51.40836 | 22.35433 | 33925 ft | 374 kts | 7° |
| 2026-04-23 16:19 | 51.46029 | 22.36204 | 33927 ft | 374 kts | 7° |
| 2026-04-23 16:19 | 51.51221 | 22.36977 | 33929 ft | 374 kts | 7° |
| 2026-04-23 16:20 | 51.56414 | 22.37749 | 33930 ft | 374 kts | 7° |
| 2026-04-23 16:20 | 51.61572 | 22.38530 | 33934 ft | 374 kts | 7° |
| 2026-04-23 16:21 | 51.66764 | 22.39318 | 33929 ft | 374 kts | 7° |
| 2026-04-23 16:21 | 51.71950 | 22.40105 | 33934 ft | 374 kts | 7° |
| 2026-04-23 16:22 | 51.74550 | 22.40499 | 34115 ft | 376 kts | 7° |
| 2026-04-23 16:22 | 51.77122 | 22.40888 | 34416 ft | 376 kts | 7° |
| 2026-04-23 16:22 | 51.79730 | 22.41280 | 34695 ft | 377 kts | 7° |
| 2026-04-23 16:22 | 51.82354 | 22.41677 | 34877 ft | 379 kts | 7° |
| 2026-04-23 16:23 | 51.87628 | 22.42478 | 34920 ft | 380 kts | 7° |
| 2026-04-23 16:23 | 51.92866 | 22.43276 | 34920 ft | 380 kts | 7° |
| 2026-04-23 16:24 | 51.98143 | 22.44083 | 34922 ft | 380 kts | 7° |
| 2026-04-23 16:24 | 52.03407 | 22.44894 | 34919 ft | 380 kts | 7° |
| 2026-04-23 16:25 | 52.08673 | 22.45704 | 34924 ft | 380 kts | 7° |
| 2026-04-23 16:25 | 52.13915 | 22.46507 | 34928 ft | 380 kts | 7° |
| 2026-04-23 16:26 | 52.19184 | 22.47329 | 34930 ft | 380 kts | 8° |
| 2026-04-23 16:26 | 52.24458 | 22.48153 | 34936 ft | 380 kts | 7° |
| 2026-04-23 16:27 | 52.29699 | 22.48958 | 34934 ft | 380 kts | 7° |
| 2026-04-23 16:27 | 52.34982 | 22.49780 | 34934 ft | 381 kts | 8° |
| 2026-04-23 16:28 | 52.40262 | 22.50597 | 34939 ft | 381 kts | 7° |
| 2026-04-23 16:28 | 52.45550 | 22.51420 | 34943 ft | 381 kts | 8° |
| 2026-04-23 16:29 | 52.50804 | 22.52237 | 34941 ft | 381 kts | 8° |
| 2026-04-23 16:29 | 52.56081 | 22.53075 | 34945 ft | 381 kts | 8° |
| 2026-04-23 16:30 | 52.61362 | 22.53930 | 34946 ft | 381 kts | 8° |
| 2026-04-23 16:30 | 52.66602 | 22.55245 | 34944 ft | 380 kts | 12° |
| 2026-04-23 16:31 | 52.71801 | 22.56908 | 34943 ft | 380 kts | 12° |
| 2026-04-23 16:31 | 52.76979 | 22.58551 | 34944 ft | 380 kts | 12° |
| 2026-04-23 16:32 | 52.82162 | 22.60115 | 34942 ft | 380 kts | 12° |
| 2026-04-23 16:32 | 52.87367 | 22.61659 | 34942 ft | 380 kts | 12° |
| 2026-04-23 16:33 | 52.92583 | 22.63199 | 34939 ft | 380 kts | 12° |
| 2026-04-23 16:33 | 52.97794 | 22.64754 | 34937 ft | 380 kts | 12° |
| 2026-04-23 16:34 | 53.02970 | 22.66312 | 34940 ft | 380 kts | 12° |
| 2026-04-23 16:34 | 53.08180 | 22.67877 | 34941 ft | 380 kts | 12° |
| 2026-04-23 16:35 | 53.13396 | 22.69452 | 34943 ft | 380 kts | 12° |
| 2026-04-23 16:35 | 53.18611 | 22.71028 | 34947 ft | 380 kts | 12° |
| 2026-04-23 16:36 | 53.23795 | 22.72609 | 34947 ft | 380 kts | 12° |
| 2026-04-23 16:36 | 53.29010 | 22.74201 | 34944 ft | 381 kts | 12° |
| 2026-04-23 16:37 | 53.34210 | 22.75788 | 34947 ft | 381 kts | 12° |
| 2026-04-23 16:37 | 53.36826 | 22.76584 | 35093 ft | 382 kts | 12° |
| 2026-04-23 16:37 | 53.39436 | 22.77374 | 35409 ft | 381 kts | 12° |
| 2026-04-23 16:38 | 53.42054 | 22.78167 | 35681 ft | 382 kts | 12° |
| 2026-04-23 16:38 | 53.44677 | 22.78969 | 35941 ft | 383 kts | 12° |
| 2026-04-23 16:38 | 53.47309 | 22.79780 | 36198 ft | 385 kts | 12° |
| 2026-04-23 16:38 | 53.49949 | 22.80591 | 36438 ft | 386 kts | 12° |
| 2026-04-23 16:39 | 53.52601 | 22.81405 | 36678 ft | 387 kts | 12° |
| 2026-04-23 16:39 | 53.55227 | 22.82216 | 36874 ft | 389 kts | 12° |
| 2026-04-23 16:39 | 53.60573 | 22.83872 | 36924 ft | 390 kts | 12° |
| 2026-04-23 16:40 | 53.65918 | 22.85521 | 36922 ft | 390 kts | 12° |
| 2026-04-23 16:40 | 53.71259 | 22.87188 | 36925 ft | 391 kts | 12° |
| 2026-04-23 16:41 | 53.76581 | 22.88844 | 36922 ft | 391 kts | 12° |
| 2026-04-23 16:41 | 53.81931 | 22.90512 | 36924 ft | 391 kts | 12° |
| 2026-04-23 16:42 | 53.87294 | 22.92182 | 36929 ft | 391 kts | 12° |
| 2026-04-23 16:42 | 53.92641 | 22.93853 | 36927 ft | 392 kts | 12° |
| 2026-04-23 16:43 | 53.98009 | 22.95550 | 36931 ft | 392 kts | 12° |
| 2026-04-23 16:43 | 54.03385 | 22.97245 | 36929 ft | 392 kts | 12° |
| 2026-04-23 16:44 | 54.08727 | 22.98938 | 36924 ft | 392 kts | 12° |
| 2026-04-23 16:44 | 54.14109 | 23.00645 | 36926 ft | 392 kts | 12° |
| 2026-04-23 16:45 | 54.19487 | 23.02349 | 36926 ft | 393 kts | 12° |
| 2026-04-23 16:45 | 54.24842 | 23.04047 | 36926 ft | 393 kts | 12° |
| 2026-04-23 16:46 | 54.30228 | 23.05768 | 36929 ft | 393 kts | 12° |
| 2026-04-23 16:46 | 54.35581 | 23.07478 | 36931 ft | 393 kts | 12° |
| 2026-04-23 16:47 | 54.40962 | 23.09212 | 36930 ft | 393 kts | 12° |
| 2026-04-23 16:47 | 54.46373 | 23.10972 | 36894 ft | 397 kts | 13° |
| 2026-04-23 16:48 | 54.51823 | 23.12734 | 36891 ft | 399 kts | 12° |
| 2026-04-23 16:48 | 54.57298 | 23.14499 | 36893 ft | 401 kts | 12° |
| 2026-04-23 16:49 | 54.62793 | 23.16273 | 36908 ft | 402 kts | 12° |
| 2026-04-23 16:49 | 54.68253 | 23.18050 | 36914 ft | 402 kts | 13° |
| 2026-04-23 16:50 | 54.73759 | 23.19842 | 36921 ft | 402 kts | 13° |
| 2026-04-23 16:50 | 54.79267 | 23.21645 | 36925 ft | 402 kts | 13° |
| 2026-04-23 16:51 | 54.84774 | 23.23460 | 36927 ft | 402 kts | 13° |
| 2026-04-23 16:51 | 54.90245 | 23.25266 | 36932 ft | 402 kts | 13° |
| 2026-04-23 16:52 | 54.95748 | 23.27086 | 36929 ft | 401 kts | 13° |
| 2026-04-23 16:52 | 55.01237 | 23.28902 | 36932 ft | 401 kts | 13° |
| 2026-04-23 16:53 | 55.06720 | 23.30720 | 36931 ft | 401 kts | 13° |
| 2026-04-23 16:53 | 55.11270 | 23.32234 | 36929 ft | 400 kts | 13° |
| 2026-04-23 16:54 | 55.17629 | 23.34362 | 36932 ft | 399 kts | 13° |
| 2026-04-23 16:54 | 55.22170 | 23.35877 | 36928 ft | 399 kts | 13° |
| 2026-04-23 16:55 | 55.27618 | 23.37699 | 36930 ft | 399 kts | 13° |
| 2026-04-23 16:55 | 55.33060 | 23.39526 | 36898 ft | 387 kts | 13° |
| 2026-04-23 16:56 | 55.38256 | 23.41281 | 36907 ft | 379 kts | 13° |
| 2026-04-23 16:56 | 55.43435 | 23.43034 | 36908 ft | 378 kts | 13° |
| 2026-04-23 16:57 | 55.48571 | 23.44781 | 36911 ft | 378 kts | 13° |
| 2026-04-23 16:57 | 55.53732 | 23.46536 | 36909 ft | 377 kts | 13° |
| 2026-04-23 16:58 | 55.58900 | 23.48306 | 36918 ft | 378 kts | 13° |
| 2026-04-23 16:58 | 55.64071 | 23.50072 | 36933 ft | 378 kts | 13° |
| 2026-04-23 16:59 | 55.69224 | 23.51838 | 36946 ft | 379 kts | 13° |
| 2026-04-23 16:59 | 55.74400 | 23.53615 | 36950 ft | 377 kts | 13° |
| 2026-04-23 17:00 | 55.79440 | 23.55346 | 36940 ft | 366 kts | 13° |
| 2026-04-23 17:00 | 55.84440 | 23.57079 | 36944 ft | 365 kts | 13° |
| 2026-04-23 17:01 | 55.89438 | 23.58816 | 36946 ft | 365 kts | 13° |
| 2026-04-23 17:01 | 55.94423 | 23.60550 | 36945 ft | 365 kts | 13° |
| 2026-04-23 17:02 | 55.99422 | 23.62295 | 36938 ft | 365 kts | 13° |
| 2026-04-23 17:02 | 56.04391 | 23.64026 | 36927 ft | 366 kts | 13° |
| 2026-04-23 17:03 | 56.09395 | 23.65769 | 36935 ft | 366 kts | 13° |
| 2026-04-23 17:03 | 56.14398 | 23.67537 | 36931 ft | 366 kts | 13° |
| 2026-04-23 17:04 | 56.19402 | 23.69299 | 36935 ft | 367 kts | 13° |
| 2026-04-23 17:04 | 56.24390 | 23.71056 | 36938 ft | 367 kts | 13° |
| 2026-04-23 17:05 | 56.29402 | 23.72826 | 36943 ft | 367 kts | 13° |
| 2026-04-23 17:05 | 56.34429 | 23.74611 | 36946 ft | 367 kts | 13° |
| 2026-04-23 17:06 | 56.39421 | 23.76379 | 36947 ft | 367 kts | 12° |
| 2026-04-23 17:06 | 56.44448 | 23.78098 | 36958 ft | 367 kts | 12° |
| 2026-04-23 17:07 | 56.49442 | 23.79784 | 36948 ft | 367 kts | 12° |
| 2026-04-23 17:07 | 56.54463 | 23.81505 | 36956 ft | 366 kts | 12° |
| 2026-04-23 17:08 | 56.59476 | 23.83243 | 36956 ft | 366 kts | 12° |
| 2026-04-23 17:08 | 56.64487 | 23.84981 | 36949 ft | 365 kts | 12° |
| 2026-04-23 17:09 | 56.69371 | 23.86675 | 36928 ft | 355 kts | 12° |
| 2026-04-23 17:09 | 56.74206 | 23.88351 | 36926 ft | 353 kts | 12° |
| 2026-04-23 17:10 | 56.79015 | 23.90030 | 36923 ft | 353 kts | 12° |
| 2026-04-23 17:10 | 56.83854 | 23.91730 | 36920 ft | 353 kts | 11° |
| 2026-04-23 17:11 | 56.88679 | 23.93423 | 36925 ft | 353 kts | 11° |
| 2026-04-23 17:11 | 56.93509 | 23.95101 | 36929 ft | 353 kts | 11° |
| 2026-04-23 17:12 | 56.98346 | 23.96791 | 36933 ft | 353 kts | 11° |
| 2026-04-23 17:12 | 57.03172 | 23.98504 | 36934 ft | 353 kts | 11° |
| 2026-04-23 17:13 | 57.07977 | 24.00209 | 36935 ft | 353 kts | 11° |
| 2026-04-23 17:13 | 57.12801 | 24.01929 | 36943 ft | 353 kts | 11° |
| 2026-04-23 17:14 | 57.17629 | 24.03642 | 36948 ft | 353 kts | 11° |
| 2026-04-23 17:14 | 57.22456 | 24.05361 | 36947 ft | 353 kts | 11° |
| 2026-04-23 17:15 | 57.27278 | 24.07093 | 36949 ft | 352 kts | 11° |
| 2026-04-23 17:15 | 57.32067 | 24.08815 | 36951 ft | 352 kts | 11° |
| 2026-04-23 17:16 | 57.36876 | 24.10544 | 36951 ft | 352 kts | 11° |
| 2026-04-23 17:16 | 57.41694 | 24.12282 | 36946 ft | 352 kts | 11° |
| 2026-04-23 17:17 | 57.46471 | 24.14001 | 36944 ft | 352 kts | 11° |
| 2026-04-23 17:17 | 57.51276 | 24.15744 | 36946 ft | 351 kts | 10° |
| 2026-04-23 17:18 | 57.58480 | 24.18373 | 36945 ft | 351 kts | 10° |
| 2026-04-23 17:19 | 57.63290 | 24.20137 | 36942 ft | 352 kts | 10° |
| 2026-04-23 17:19 | 57.68065 | 24.21885 | 36944 ft | 352 kts | 10° |
| 2026-04-23 17:20 | 57.72873 | 24.23656 | 36940 ft | 352 kts | 10° |
| 2026-04-23 17:21 | 57.82526 | 24.27178 | 36939 ft | 353 kts | 10° |
| 2026-04-23 17:21 | 57.89744 | 24.29843 | 36940 ft | 353 kts | 10° |
| 2026-04-23 17:22 | 57.97007 | 24.32383 | 36938 ft | 353 kts | 9° |
| 2026-04-23 17:23 | 58.04267 | 24.34827 | 36935 ft | 353 kts | 9° |
| 2026-04-23 17:24 | 58.11492 | 24.37318 | 36930 ft | 353 kts | 9° |
| 2026-04-23 17:24 | 58.18728 | 24.39830 | 36926 ft | 352 kts | 9° |
| 2026-04-23 17:25 | 58.25949 | 24.42373 | 36926 ft | 352 kts | 9° |
| 2026-04-23 17:26 | 58.35573 | 24.45739 | 36916 ft | 351 kts | 9° |
| 2026-04-23 17:27 | 58.42743 | 24.48255 | 36917 ft | 350 kts | 9° |
| 2026-04-23 17:27 | 58.47542 | 24.49942 | 36918 ft | 350 kts | 8° |
| 2026-04-23 17:28 | 58.52334 | 24.51633 | 36918 ft | 350 kts | 9° |
| 2026-04-23 17:28 | 58.57126 | 24.53330 | 36918 ft | 350 kts | 8° |
| 2026-04-23 17:29 | 58.61891 | 24.55031 | 36919 ft | 350 kts | 9° |
| 2026-04-23 17:30 | 58.68277 | 24.57306 | 36921 ft | 349 kts | 8° |
| 2026-04-23 17:30 | 58.76223 | 24.60155 | 36921 ft | 349 kts | 8° |
| 2026-04-23 17:31 | 58.80993 | 24.61867 | 36914 ft | 349 kts | 8° |
| 2026-04-23 17:31 | 58.85769 | 24.63577 | 36920 ft | 349 kts | 8° |
| 2026-04-23 17:32 | 58.90549 | 24.65296 | 36914 ft | 348 kts | 8° |
| 2026-04-23 17:32 | 58.95279 | 24.67008 | 36917 ft | 348 kts | 8° |
| 2026-04-23 17:33 | 59.00047 | 24.68741 | 36905 ft | 348 kts | 8° |
| 2026-04-23 17:33 | 59.04813 | 24.70469 | 36910 ft | 348 kts | 8° |
| 2026-04-23 17:34 | 59.09606 | 24.72209 | 36749 ft | 356 kts | 8° |
| 2026-04-23 17:34 | 59.14584 | 24.74021 | 36230 ft | 371 kts | 8° |
| 2026-04-23 17:35 | 59.17129 | 24.74954 | 35976 ft | 372 kts | 8° |
| 2026-04-23 17:35 | 59.21341 | 24.76519 | 35170 ft | 369 kts | 8° |
| 2026-04-23 17:35 | 59.24735 | 24.77777 | 34317 ft | 370 kts | 8° |
| 2026-04-23 17:36 | 59.27265 | 24.78713 | 33599 ft | 371 kts | 8° |
| 2026-04-23 17:36 | 59.29772 | 24.79643 | 32895 ft | 370 kts | 8° |
| 2026-04-23 17:36 | 59.32303 | 24.80586 | 32213 ft | 369 kts | 8° |
| 2026-04-23 17:36 | 59.34829 | 24.81531 | 31474 ft | 370 kts | 8° |
| 2026-04-23 17:37 | 59.37367 | 24.82476 | 30745 ft | 370 kts | 8° |
| 2026-04-23 17:37 | 59.39904 | 24.83425 | 29935 ft | 372 kts | 9° |
| 2026-04-23 17:37 | 59.44882 | 24.86937 | 27852 ft | 384 kts | 18° |
| 2026-04-23 17:38 | 59.47272 | 24.88942 | 27614 ft | 359 kts | 18° |
| 2026-04-23 17:38 | 59.49462 | 24.90794 | 27481 ft | 334 kts | 17° |
| 2026-04-23 17:38 | 59.51534 | 24.92541 | 27201 ft | 316 kts | 17° |
| 2026-04-23 17:38 | 59.53528 | 24.94199 | 26628 ft | 307 kts | 16° |
| 2026-04-23 17:39 | 59.55492 | 24.95816 | 26043 ft | 302 kts | 16° |
| 2026-04-23 17:39 | 59.57420 | 24.97401 | 25355 ft | 298 kts | 16° |
| 2026-04-23 17:39 | 59.59306 | 24.98960 | 24651 ft | 297 kts | 17° |
| 2026-04-23 17:39 | 59.61200 | 25.00535 | 23934 ft | 295 kts | 17° |
| 2026-04-23 17:40 | 59.63095 | 25.02119 | 23179 ft | 294 kts | 17° |
| 2026-04-23 17:40 | 59.64969 | 25.03690 | 22358 ft | 292 kts | 17° |
| 2026-04-23 17:40 | 59.66830 | 25.05255 | 21604 ft | 289 kts | 17° |
| 2026-04-23 17:40 | 59.68673 | 25.06809 | 20870 ft | 286 kts | 17° |
| 2026-04-23 17:41 | 59.70494 | 25.08346 | 20202 ft | 282 kts | 17° |
| 2026-04-23 17:41 | 59.74037 | 25.11338 | 18952 ft | 273 kts | 17° |
| 2026-04-23 17:41 | 59.75761 | 25.12787 | 18313 ft | 270 kts | 18° |
| 2026-04-23 17:42 | 59.79160 | 25.15656 | 17730 ft | 264 kts | 18° |
| 2026-04-23 17:42 | 59.80284 | 25.16598 | 17672 ft | 265 kts | 18° |
| 2026-04-23 17:42 | 59.81981 | 25.18025 | 17559 ft | 265 kts | 18° |
| 2026-04-23 17:43 | 59.83675 | 25.19459 | 17447 ft | 265 kts | 18° |
| 2026-04-23 17:43 | 59.85381 | 25.20911 | 17321 ft | 265 kts | 18° |
| 2026-04-23 17:43 | 59.87076 | 25.22354 | 17198 ft | 265 kts | 18° |
| 2026-04-23 17:43 | 59.88775 | 25.23732 | 17084 ft | 262 kts | 13° |
| 2026-04-23 17:44 | 59.90554 | 25.24345 | 16979 ft | 258 kts | 0° |
| 2026-04-23 17:44 | 59.92326 | 25.24004 | 16540 ft | 261 kts | 347° |
| 2026-04-23 17:44 | 59.95772 | 25.21817 | 15681 ft | 259 kts | 344° |
| 2026-04-23 17:45 | 59.97487 | 25.20720 | 15280 ft | 258 kts | 344° |
| 2026-04-23 17:45 | 60.00899 | 25.18549 | 14461 ft | 257 kts | 344° |
| 2026-04-23 17:45 | 60.02578 | 25.17480 | 14057 ft | 256 kts | 344° |
| 2026-04-23 17:46 | 60.06002 | 25.15293 | 13032 ft | 260 kts | 344° |
| 2026-04-23 17:46 | 60.07721 | 25.14197 | 12462 ft | 258 kts | 344° |
| 2026-04-23 17:46 | 60.09434 | 25.13107 | 11911 ft | 257 kts | 344° |
| 2026-04-23 17:47 | 60.11135 | 25.12024 | 11362 ft | 256 kts | 343° |
| 2026-04-23 17:47 | 60.12810 | 25.10810 | 10830 ft | 256 kts | 335° |
| 2026-04-23 17:47 | 60.15324 | 25.05812 | 9782 ft | 263 kts | 302° |
| 2026-04-23 17:48 | 60.16090 | 25.02571 | 9347 ft | 249 kts | 301° |
| 2026-04-23 17:48 | 60.16813 | 24.99524 | 8932 ft | 236 kts | 302° |
| 2026-04-23 17:48 | 60.17513 | 24.96586 | 8527 ft | 232 kts | 298° |
| 2026-04-23 17:48 | 60.17891 | 24.93413 | 8134 ft | 239 kts | 278° |
| 2026-04-23 17:49 | 60.17676 | 24.90087 | 7750 ft | 247 kts | 256° |
| 2026-04-23 17:49 | 60.16845 | 24.87025 | 7355 ft | 254 kts | 233° |
| 2026-04-23 17:49 | 60.15642 | 24.84324 | 6735 ft | 259 kts | 235° |
| 2026-04-23 17:49 | 60.14903 | 24.81186 | 6223 ft | 242 kts | 266° |
| 2026-04-23 17:50 | 60.15057 | 24.78014 | 5695 ft | 225 kts | 296° |
| 2026-04-23 17:50 | 60.15671 | 24.72144 | 4807 ft | 222 kts | 264° |
| 2026-04-23 17:50 | 60.15349 | 24.69101 | 4441 ft | 222 kts | 261° |
| 2026-04-23 17:51 | 60.15281 | 24.66076 | 4012 ft | 214 kts | 288° |
| 2026-04-23 17:51 | 60.16025 | 24.63624 | 3618 ft | 204 kts | 322° |
| 2026-04-23 17:51 | 60.18596 | 24.63050 | 2840 ft | 197 kts | 26° |
| 2026-04-23 17:52 | 60.19618 | 24.64878 | 2511 ft | 197 kts | 44° |
| 2026-04-23 17:52 | 60.21473 | 24.68930 | 2301 ft | 196 kts | 44° |
| 2026-04-23 17:52 | 60.22366 | 24.70876 | 2319 ft | 183 kts | 44° |
| 2026-04-23 17:53 | 60.24051 | 24.74544 | 2243 ft | 178 kts | 43° |
| 2026-04-23 17:53 | 60.24889 | 24.76371 | 2055 ft | 175 kts | 43° |
| 2026-04-23 17:53 | 60.25684 | 24.78108 | 1837 ft | 166 kts | 43° |
| 2026-04-23 17:54 | 60.26448 | 24.79777 | 1627 ft | 155 kts | 43° |
| 2026-04-23 17:54 | 60.27152 | 24.81317 | 1425 ft | 142 kts | 43° |
| 2026-04-23 17:54 | 60.28442 | 24.84136 | 1016 ft | 135 kts | 44° |
| 2026-04-23 17:55 | 60.29717 | 24.86926 | 643 ft | 136 kts | 45° |
| 2026-04-23 17:55 | 60.30360 | 24.88347 | 474 ft | 137 kts | 45° |
| 2026-04-23 17:55 | 60.31011 | 24.89762 | 293 ft | 136 kts | 44° |
| 2026-04-23 17:56 | 60.31634 | 24.91134 | 154 ft | 126 kts | 43° |
| 2026-04-23 17:56 | 60.32558 | 24.93165 | 178 ft | 86 kts | 47° |
| 2026-04-23 17:56 | 60.32945 | 24.94004 | 197 ft | 63 kts | 49° |
| 2026-04-23 17:57 | 60.33053 | 24.94518 | 191 ft | 24 kts | 98° |
| 2026-04-23 17:57 | 60.33047 | 24.94609 | 184 ft | 5 kts | 98° |
| 2026-04-23 17:57 | 60.33095 | 24.94947 | 178 ft | 19 kts | 63° |
| 2026-04-23 17:58 | 60.33134 | 24.95218 | 178 ft | 21 kts | 62° |
| 2026-04-23 17:58 | 60.33208 | 24.95457 | 182 ft | 19 kts | 85° |
| 2026-04-23 17:58 | 60.33129 | 24.95672 | 180 ft | 22 kts | 137° |
| 2026-04-23 17:58 | 60.33002 | 24.95854 | 180 ft | 23 kts | 149° |
| 2026-04-23 17:59 | 60.32850 | 24.96031 | 174 ft | 27 kts | 150° |
| 2026-04-23 17:59 | 60.32678 | 24.96233 | 172 ft | 30 kts | 149° |
| 2026-04-23 17:59 | 60.32546 | 24.96386 | 174 ft | 4 kts | 150° |
| 2026-04-23 17:59 | 60.32540 | 24.96393 | 174 ft | 2 kts | 150° |
| 2026-04-23 18:00 | 60.32487 | 24.96454 | 174 ft | 19 kts | 150° |
| 2026-04-23 18:00 | 60.32347 | 24.96618 | 171 ft | 13 kts | 150° |
| 2026-04-23 18:00 | 60.32299 | 24.96673 | 168 ft | 0 kts | 151° |
| 2026-04-23 18:00 | 60.32276 | 24.96699 | 167 ft | 8 kts | 150° |
| 2026-04-23 18:01 | 60.32193 | 24.96795 | 166 ft | 20 kts | 150° |
| 2026-04-23 18:01 | 60.32068 | 24.96941 | 166 ft | 16 kts | 150° |
| 2026-04-23 18:01 | 60.32012 | 24.96950 | 167 ft | 8 kts | 204° |
| 2026-04-23 18:01 | 60.31986 | 24.96912 | 167 ft | 4 kts | 217° |
| 2026-04-23 18:02 | 60.31978 | 24.96899 | 167 ft | 0 kts | 217° |